sensor_id;sensor_type;location;lat;lon;timestamp;P1;durP1;ratioP1;P2;durP2;ratioP2
66680;SDS011;53575;51.366;12.350;2022-10-19T00:01:12;19.50;;;9.40;;
66680;SDS011;53575;51.366;12.350;2022-10-19T00:03:40;17.65;;;8.75;;
66680;SDS011;53575;51.366;12.350;2022-10-19T00:06:13;17.92;;;9.38;;
66680;SDS011;53575;51.366;12.350;2022-10-19T00:08:43;16.23;;;8.77;;
66680;SDS011;53575;51.366;12.350;2022-10-19T00:11:09;15.80;;;8.85;;
66680;SDS011;53575;51.366;12.350;2022-10-19T00:13:35;18.17;;;9.32;;
66680;SDS011;53575;51.366;12.350;2022-10-19T00:16:06;18.65;;;9.05;;
66680;SDS011;53575;51.366;12.350;2022-10-19T00:18:33;13.63;;;8.93;;
66680;SDS011;53575;51.366;12.350;2022-10-19T00:21:02;16.75;;;9.60;;
66680;SDS011;53575;51.366;12.350;2022-10-19T00:23:32;16.80;;;9.95;;
66680;SDS011;53575;51.366;12.350;2022-10-19T00:25:58;21.15;;;9.40;;
66680;SDS011;53575;51.366;12.350;2022-10-19T00:28:24;18.38;;;9.13;;
66680;SDS011;53575;51.366;12.350;2022-10-19T00:30:50;15.60;;;9.57;;
66680;SDS011;53575;51.366;12.350;2022-10-19T00:33:15;20.02;;;10.43;;
66680;SDS011;53575;51.366;12.350;2022-10-19T00:35:45;18.63;;;10.30;;
66680;SDS011;53575;51.366;12.350;2022-10-19T00:38:12;16.40;;;10.07;;
66680;SDS011;53575;51.366;12.350;2022-10-19T00:40:38;19.15;;;10.48;;
66680;SDS011;53575;51.366;12.350;2022-10-19T00:43:14;17.25;;;10.02;;
66680;SDS011;53575;51.366;12.350;2022-10-19T00:45:42;16.40;;;9.38;;
66680;SDS011;53575;51.366;12.350;2022-10-19T00:48:08;19.20;;;9.75;;
66680;SDS011;53575;51.366;12.350;2022-10-19T00:50:36;13.70;;;8.75;;
66680;SDS011;53575;51.366;12.350;2022-10-19T00:53:01;17.00;;;9.35;;
66680;SDS011;53575;51.366;12.350;2022-10-19T00:55:27;18.60;;;10.10;;
66680;SDS011;53575;51.366;12.350;2022-10-19T00:57:52;16.30;;;9.32;;
66680;SDS011;53575;51.366;12.350;2022-10-19T01:00:18;18.58;;;8.80;;
66680;SDS011;53575;51.366;12.350;2022-10-19T01:02:43;15.02;;;10.10;;
66680;SDS011;53575;51.366;12.350;2022-10-19T01:05:10;15.85;;;9.45;;
66680;SDS011;53575;51.366;12.350;2022-10-19T01:07:36;18.73;;;9.18;;
66680;SDS011;53575;51.366;12.350;2022-10-19T01:10:01;15.68;;;8.90;;
66680;SDS011;53575;51.366;12.350;2022-10-19T01:12:44;16.08;;;9.88;;
66680;SDS011;53575;51.366;12.350;2022-10-19T01:35:09;15.65;;;9.60;;
66680;SDS011;53575;51.366;12.350;2022-10-19T01:37:48;16.48;;;9.23;;
66680;SDS011;53575;51.366;12.350;2022-10-19T01:46:12;18.00;;;8.68;;
66680;SDS011;53575;51.366;12.350;2022-10-19T01:48:45;16.85;;;9.10;;
66680;SDS011;53575;51.366;12.350;2022-10-19T01:51:17;15.05;;;8.30;;
66680;SDS011;53575;51.366;12.350;2022-10-19T01:53:48;16.75;;;9.27;;
66680;SDS011;53575;51.366;12.350;2022-10-19T01:56:18;12.40;;;8.25;;
66680;SDS011;53575;51.366;12.350;2022-10-19T01:58:48;14.57;;;7.82;;
66680;SDS011;53575;51.366;12.350;2022-10-19T02:01:15;14.15;;;7.65;;
66680;SDS011;53575;51.366;12.350;2022-10-19T02:03:43;12.73;;;7.87;;
66680;SDS011;53575;51.366;12.350;2022-10-19T02:06:09;13.98;;;6.93;;
66680;SDS011;53575;51.366;12.350;2022-10-19T02:08:38;14.13;;;8.40;;
66680;SDS011;53575;51.366;12.350;2022-10-19T02:11:08;13.05;;;7.25;;
66680;SDS011;53575;51.366;12.350;2022-10-19T02:13:33;17.83;;;8.45;;
66680;SDS011;53575;51.366;12.350;2022-10-19T02:16:00;15.40;;;7.72;;
66680;SDS011;53575;51.366;12.350;2022-10-19T02:18:30;12.32;;;8.00;;
66680;SDS011;53575;51.366;12.350;2022-10-19T02:23:28;14.63;;;7.90;;
66680;SDS011;53575;51.366;12.350;2022-10-19T02:25:54;13.77;;;7.75;;
66680;SDS011;53575;51.366;12.350;2022-10-19T02:28:20;13.45;;;7.63;;
66680;SDS011;53575;51.366;12.350;2022-10-19T02:30:47;15.02;;;7.82;;
66680;SDS011;53575;51.366;12.350;2022-10-19T02:33:12;13.27;;;7.93;;
66680;SDS011;53575;51.366;12.350;2022-10-19T02:35:38;16.15;;;7.22;;
66680;SDS011;53575;51.366;12.350;2022-10-19T02:38:04;13.50;;;6.97;;
66680;SDS011;53575;51.366;12.350;2022-10-19T02:40:32;10.68;;;7.57;;
66680;SDS011;53575;51.366;12.350;2022-10-19T02:43:06;14.63;;;8.18;;
66680;SDS011;53575;51.366;12.350;2022-10-19T02:45:37;13.70;;;7.60;;
66680;SDS011;53575;51.366;12.350;2022-10-19T02:48:10;15.60;;;8.70;;
66680;SDS011;53575;51.366;12.350;2022-10-19T02:50:42;12.80;;;7.72;;
66680;SDS011;53575;51.366;12.350;2022-10-19T02:53:08;12.63;;;7.72;;
66680;SDS011;53575;51.366;12.350;2022-10-19T02:55:34;13.20;;;7.60;;
66680;SDS011;53575;51.366;12.350;2022-10-19T02:57:59;17.98;;;7.95;;
66680;SDS011;53575;51.366;12.350;2022-10-19T03:00:25;10.57;;;7.32;;
66680;SDS011;53575;51.366;12.350;2022-10-19T03:02:50;13.82;;;7.70;;
66680;SDS011;53575;51.366;12.350;2022-10-19T03:05:15;14.50;;;7.40;;
66680;SDS011;53575;51.366;12.350;2022-10-19T03:07:41;13.10;;;7.03;;
66680;SDS011;53575;51.366;12.350;2022-10-19T03:10:07;18.67;;;11.23;;
66680;SDS011;53575;51.366;12.350;2022-10-19T03:12:33;15.35;;;7.18;;
66680;SDS011;53575;51.366;12.350;2022-10-19T03:14:58;14.48;;;7.78;;
66680;SDS011;53575;51.366;12.350;2022-10-19T03:17:23;10.57;;;6.88;;
66680;SDS011;53575;51.366;12.350;2022-10-19T03:19:48;18.52;;;9.05;;
66680;SDS011;53575;51.366;12.350;2022-10-19T03:22:14;13.98;;;7.03;;
66680;SDS011;53575;51.366;12.350;2022-10-19T03:24:39;11.52;;;6.70;;
66680;SDS011;53575;51.366;12.350;2022-10-19T03:27:04;9.63;;;5.97;;
66680;SDS011;53575;51.366;12.350;2022-10-19T03:29:30;15.60;;;6.97;;
66680;SDS011;53575;51.366;12.350;2022-10-19T03:31:55;11.90;;;6.78;;
66680;SDS011;53575;51.366;12.350;2022-10-19T03:34:21;14.38;;;6.93;;
66680;SDS011;53575;51.366;12.350;2022-10-19T03:36:46;15.00;;;7.22;;
66680;SDS011;53575;51.366;12.350;2022-10-19T03:39:12;14.43;;;7.57;;
66680;SDS011;53575;51.366;12.350;2022-10-19T03:41:38;11.45;;;7.10;;
66680;SDS011;53575;51.366;12.350;2022-10-19T03:44:05;14.35;;;7.45;;
66680;SDS011;53575;51.366;12.350;2022-10-19T03:46:31;14.27;;;7.22;;
66680;SDS011;53575;51.366;12.350;2022-10-19T03:48:57;13.18;;;7.82;;
66680;SDS011;53575;51.366;12.350;2022-10-19T03:51:23;18.08;;;6.60;;
66680;SDS011;53575;51.366;12.350;2022-10-19T03:53:51;16.02;;;6.47;;
66680;SDS011;53575;51.366;12.350;2022-10-19T03:56:18;9.43;;;6.43;;
66680;SDS011;53575;51.366;12.350;2022-10-19T03:58:45;15.30;;;7.07;;
66680;SDS011;53575;51.366;12.350;2022-10-19T04:01:20;12.88;;;7.18;;
66680;SDS011;53575;51.366;12.350;2022-10-19T04:03:53;18.48;;;9.07;;
66680;SDS011;53575;51.366;12.350;2022-10-19T04:06:19;16.58;;;7.53;;
66680;SDS011;53575;51.366;12.350;2022-10-19T04:08:49;12.43;;;6.90;;
66680;SDS011;53575;51.366;12.350;2022-10-19T04:11:14;13.90;;;7.25;;
66680;SDS011;53575;51.366;12.350;2022-10-19T04:13:42;24.00;;;9.25;;
66680;SDS011;53575;51.366;12.350;2022-10-19T04:16:08;17.05;;;8.07;;
66680;SDS011;53575;51.366;12.350;2022-10-19T04:18:37;22.38;;;7.85;;
66680;SDS011;53575;51.366;12.350;2022-10-19T04:21:03;14.90;;;7.63;;
66680;SDS011;53575;51.366;12.350;2022-10-19T04:23:30;15.38;;;7.07;;
66680;SDS011;53575;51.366;12.350;2022-10-19T04:25:58;11.65;;;7.40;;
66680;SDS011;53575;51.366;12.350;2022-10-19T04:28:24;13.95;;;7.78;;
66680;SDS011;53575;51.366;12.350;2022-10-19T04:30:50;11.95;;;7.20;;
66680;SDS011;53575;51.366;12.350;2022-10-19T04:33:15;11.30;;;7.93;;
66680;SDS011;53575;51.366;12.350;2022-10-19T04:35:40;14.75;;;6.07;;
66680;SDS011;53575;51.366;12.350;2022-10-19T04:38:06;14.63;;;6.57;;
66680;SDS011;53575;51.366;12.350;2022-10-19T04:40:33;13.48;;;6.82;;
66680;SDS011;53575;51.366;12.350;2022-10-19T04:42:59;19.63;;;7.40;;
66680;SDS011;53575;51.366;12.350;2022-10-19T04:45:24;11.15;;;6.20;;
66680;SDS011;53575;51.366;12.350;2022-10-19T04:47:50;13.80;;;7.10;;
66680;SDS011;53575;51.366;12.350;2022-10-19T04:50:15;13.88;;;7.35;;
66680;SDS011;53575;51.366;12.350;2022-10-19T04:52:42;15.07;;;7.72;;
66680;SDS011;53575;51.366;12.350;2022-10-19T04:55:09;15.80;;;7.70;;
66680;SDS011;53575;51.366;12.350;2022-10-19T04:57:34;11.98;;;6.88;;
66680;SDS011;53575;51.366;12.350;2022-10-19T04:59:59;13.15;;;5.82;;
66680;SDS011;53575;51.366;12.350;2022-10-19T05:02:25;13.82;;;6.80;;
66680;SDS011;53575;51.366;12.350;2022-10-19T05:04:50;14.13;;;6.70;;
66680;SDS011;53575;51.366;12.350;2022-10-19T05:07:15;13.25;;;6.55;;
66680;SDS011;53575;51.366;12.350;2022-10-19T05:09:40;17.13;;;6.25;;
66680;SDS011;53575;51.366;12.350;2022-10-19T05:12:06;17.55;;;6.80;;
66680;SDS011;53575;51.366;12.350;2022-10-19T05:14:32;13.57;;;7.03;;
66680;SDS011;53575;51.366;12.350;2022-10-19T05:16:58;13.20;;;6.85;;
66680;SDS011;53575;51.366;12.350;2022-10-19T05:19:23;17.45;;;5.70;;
66680;SDS011;53575;51.366;12.350;2022-10-19T05:21:48;11.85;;;6.68;;
66680;SDS011;53575;51.366;12.350;2022-10-19T05:24:14;9.32;;;6.00;;
66680;SDS011;53575;51.366;12.350;2022-10-19T05:26:39;19.15;;;7.03;;
66680;SDS011;53575;51.366;12.350;2022-10-19T05:29:04;11.38;;;6.05;;
66680;SDS011;53575;51.366;12.350;2022-10-19T05:31:31;11.18;;;6.07;;
66680;SDS011;53575;51.366;12.350;2022-10-19T05:33:57;10.98;;;6.57;;
66680;SDS011;53575;51.366;12.350;2022-10-19T05:36:27;16.13;;;6.78;;
66680;SDS011;53575;51.366;12.350;2022-10-19T05:38:56;15.88;;;9.13;;
66680;SDS011;53575;51.366;12.350;2022-10-19T05:41:22;19.35;;;8.18;;
66680;SDS011;53575;51.366;12.350;2022-10-19T05:43:53;15.70;;;8.55;;
66680;SDS011;53575;51.366;12.350;2022-10-19T05:46:20;19.15;;;8.70;;
66680;SDS011;53575;51.366;12.350;2022-10-19T05:48:46;13.45;;;7.50;;
66680;SDS011;53575;51.366;12.350;2022-10-19T05:51:13;17.42;;;7.93;;
66680;SDS011;53575;51.366;12.350;2022-10-19T05:53:41;18.35;;;8.07;;
66680;SDS011;53575;51.366;12.350;2022-10-19T05:56:08;17.38;;;7.60;;
66680;SDS011;53575;51.366;12.350;2022-10-19T05:58:36;16.73;;;9.07;;
66680;SDS011;53575;51.366;12.350;2022-10-19T06:01:02;10.68;;;7.18;;
66680;SDS011;53575;51.366;12.350;2022-10-19T06:03:28;12.88;;;6.50;;
66680;SDS011;53575;51.366;12.350;2022-10-19T06:05:54;13.30;;;6.63;;
66680;SDS011;53575;51.366;12.350;2022-10-19T06:08:20;15.15;;;7.30;;
66680;SDS011;53575;51.366;12.350;2022-10-19T06:10:47;13.90;;;7.57;;
66680;SDS011;53575;51.366;12.350;2022-10-19T06:13:16;14.93;;;6.43;;
66680;SDS011;53575;51.366;12.350;2022-10-19T06:15:43;22.02;;;8.32;;
66680;SDS011;53575;51.366;12.350;2022-10-19T06:18:09;16.10;;;7.18;;
66680;SDS011;53575;51.366;12.350;2022-10-19T06:20:36;14.95;;;7.20;;
66680;SDS011;53575;51.366;12.350;2022-10-19T06:23:06;17.00;;;6.38;;
66680;SDS011;53575;51.366;12.350;2022-10-19T06:25:33;23.17;;;8.10;;
66680;SDS011;53575;51.366;12.350;2022-10-19T06:27:59;13.73;;;7.22;;
66680;SDS011;53575;51.366;12.350;2022-10-19T06:30:26;15.77;;;6.38;;
66680;SDS011;53575;51.366;12.350;2022-10-19T06:32:51;15.75;;;6.45;;
66680;SDS011;53575;51.366;12.350;2022-10-19T06:35:17;12.32;;;6.28;;
66680;SDS011;53575;51.366;12.350;2022-10-19T06:37:43;15.63;;;7.13;;
66680;SDS011;53575;51.366;12.350;2022-10-19T06:40:08;20.25;;;7.72;;
66680;SDS011;53575;51.366;12.350;2022-10-19T06:42:35;19.52;;;8.25;;
66680;SDS011;53575;51.366;12.350;2022-10-19T06:45:04;16.02;;;6.93;;
66680;SDS011;53575;51.366;12.350;2022-10-19T06:47:33;20.10;;;7.88;;
66680;SDS011;53575;51.366;12.350;2022-10-19T06:49:59;11.60;;;6.65;;
66680;SDS011;53575;51.366;12.350;2022-10-19T06:52:25;13.90;;;6.43;;
66680;SDS011;53575;51.366;12.350;2022-10-19T06:54:50;14.85;;;6.35;;
66680;SDS011;53575;51.366;12.350;2022-10-19T06:57:15;18.27;;;8.07;;
66680;SDS011;53575;51.366;12.350;2022-10-19T06:59:41;15.77;;;5.50;;
66680;SDS011;53575;51.366;12.350;2022-10-19T07:02:06;13.27;;;5.60;;
66680;SDS011;53575;51.366;12.350;2022-10-19T07:04:31;15.68;;;5.38;;
66680;SDS011;53575;51.366;12.350;2022-10-19T07:06:57;12.05;;;5.72;;
66680;SDS011;53575;51.366;12.350;2022-10-19T07:09:22;17.52;;;7.30;;
66680;SDS011;53575;51.366;12.350;2022-10-19T07:11:47;15.65;;;6.13;;
66680;SDS011;53575;51.366;12.350;2022-10-19T07:14:13;12.85;;;5.57;;
66680;SDS011;53575;51.366;12.350;2022-10-19T07:16:38;15.88;;;6.35;;
66680;SDS011;53575;51.366;12.350;2022-10-19T07:19:04;16.33;;;5.07;;
66680;SDS011;53575;51.366;12.350;2022-10-19T07:21:29;14.45;;;5.55;;
66680;SDS011;53575;51.366;12.350;2022-10-19T07:23:54;11.73;;;5.80;;
66680;SDS011;53575;51.366;12.350;2022-10-19T07:26:21;17.92;;;5.78;;
66680;SDS011;53575;51.366;12.350;2022-10-19T07:28:52;10.77;;;5.35;;
66680;SDS011;53575;51.366;12.350;2022-10-19T07:31:19;11.63;;;5.35;;
66680;SDS011;53575;51.366;12.350;2022-10-19T07:33:50;15.77;;;5.15;;
66680;SDS011;53575;51.366;12.350;2022-10-19T07:36:22;13.93;;;5.18;;
66680;SDS011;53575;51.366;12.350;2022-10-19T07:38:49;16.92;;;5.40;;
66680;SDS011;53575;51.366;12.350;2022-10-19T07:41:16;13.38;;;6.25;;
66680;SDS011;53575;51.366;12.350;2022-10-19T07:43:43;14.45;;;6.72;;
66680;SDS011;53575;51.366;12.350;2022-10-19T07:46:11;15.52;;;5.97;;
66680;SDS011;53575;51.366;12.350;2022-10-19T07:48:38;10.85;;;5.65;;
66680;SDS011;53575;51.366;12.350;2022-10-19T07:51:05;15.10;;;5.20;;
66680;SDS011;53575;51.366;12.350;2022-10-19T07:53:32;10.70;;;5.28;;
66680;SDS011;53575;51.366;12.350;2022-10-19T07:56:05;22.40;;;9.27;;
66680;SDS011;53575;51.366;12.350;2022-10-19T07:58:41;17.92;;;5.72;;
66680;SDS011;53575;51.366;12.350;2022-10-19T08:01:17;11.80;;;5.57;;
66680;SDS011;53575;51.366;12.350;2022-10-19T08:03:45;15.13;;;5.07;;
66680;SDS011;53575;51.366;12.350;2022-10-19T08:06:12;10.13;;;5.22;;
66680;SDS011;53575;51.366;12.350;2022-10-19T08:08:40;9.82;;;5.40;;
66680;SDS011;53575;51.366;12.350;2022-10-19T08:11:10;18.40;;;5.80;;
66680;SDS011;53575;51.366;12.350;2022-10-19T08:13:43;12.55;;;5.38;;
66680;SDS011;53575;51.366;12.350;2022-10-19T08:16:26;11.55;;;5.22;;
66680;SDS011;53575;51.366;12.350;2022-10-19T08:18:55;12.18;;;6.20;;
66680;SDS011;53575;51.366;12.350;2022-10-19T08:21:22;17.00;;;5.95;;
66680;SDS011;53575;51.366;12.350;2022-10-19T08:23:48;10.80;;;5.68;;
66680;SDS011;53575;51.366;12.350;2022-10-19T08:26:13;14.50;;;5.82;;
66680;SDS011;53575;51.366;12.350;2022-10-19T08:28:39;15.30;;;6.97;;
66680;SDS011;53575;51.366;12.350;2022-10-19T08:31:22;12.38;;;6.75;;
66680;SDS011;53575;51.366;12.350;2022-10-19T08:33:49;14.75;;;5.57;;
66680;SDS011;53575;51.366;12.350;2022-10-19T08:36:15;9.40;;;5.22;;
66680;SDS011;53575;51.366;12.350;2022-10-19T08:38:41;12.27;;;5.38;;
66680;SDS011;53575;51.366;12.350;2022-10-19T08:49:52;15.45;;;5.20;;
66680;SDS011;53575;51.366;12.350;2022-10-19T08:52:23;17.20;;;5.15;;
66680;SDS011;53575;51.366;12.350;2022-10-19T08:54:54;11.30;;;4.38;;
66680;SDS011;53575;51.366;12.350;2022-10-19T09:00:43;10.38;;;4.88;;
66680;SDS011;53575;51.366;12.350;2022-10-19T09:03:21;10.88;;;3.78;;
66680;SDS011;53575;51.366;12.350;2022-10-19T09:05:56;10.57;;;4.07;;
66680;SDS011;53575;51.366;12.350;2022-10-19T09:08:30;9.18;;;3.30;;
66680;SDS011;53575;51.366;12.350;2022-10-19T09:10:56;9.48;;;3.03;;
66680;SDS011;53575;51.366;12.350;2022-10-19T09:13:40;12.73;;;3.50;;
66680;SDS011;53575;51.366;12.350;2022-10-19T09:16:12;8.75;;;3.03;;
66680;SDS011;53575;51.366;12.350;2022-10-19T09:18:39;7.60;;;3.33;;
66680;SDS011;53575;51.366;12.350;2022-10-19T09:21:13;9.75;;;3.00;;
66680;SDS011;53575;51.366;12.350;2022-10-19T09:26:20;5.85;;;2.38;;
66680;SDS011;53575;51.366;12.350;2022-10-19T09:31:51;7.20;;;2.80;;
66680;SDS011;53575;51.366;12.350;2022-10-19T09:34:23;8.13;;;3.13;;
66680;SDS011;53575;51.366;12.350;2022-10-19T09:36:51;7.72;;;3.50;;
66680;SDS011;53575;51.366;12.350;2022-10-19T09:39:20;9.52;;;3.58;;
66680;SDS011;53575;51.366;12.350;2022-10-19T09:41:49;6.70;;;2.38;;
66680;SDS011;53575;51.366;12.350;2022-10-19T09:44:17;4.30;;;1.42;;
66680;SDS011;53575;51.366;12.350;2022-10-19T09:52:20;5.68;;;1.40;;
66680;SDS011;53575;51.366;12.350;2022-10-19T09:54:49;7.07;;;1.52;;
66680;SDS011;53575;51.366;12.350;2022-10-19T09:57:23;6.50;;;1.45;;
66680;SDS011;53575;51.366;12.350;2022-10-19T09:59:50;4.82;;;1.80;;
66680;SDS011;53575;51.366;12.350;2022-10-19T10:02:20;6.35;;;2.10;;
66680;SDS011;53575;51.366;12.350;2022-10-19T10:04:57;7.15;;;2.15;;
66680;SDS011;53575;51.366;12.350;2022-10-19T10:07:31;4.53;;;1.83;;
66680;SDS011;53575;51.366;12.350;2022-10-19T10:09:59;6.50;;;1.90;;
66680;SDS011;53575;51.366;12.350;2022-10-19T10:12:24;6.20;;;2.58;;
66680;SDS011;53575;51.366;12.350;2022-10-19T10:14:51;4.50;;;1.85;;
66680;SDS011;53575;51.366;12.350;2022-10-19T10:17:19;4.97;;;1.98;;
66680;SDS011;53575;51.366;12.350;2022-10-19T10:24:54;6.18;;;1.80;;
66680;SDS011;53575;51.366;12.350;2022-10-19T10:27:31;4.53;;;1.58;;
66680;SDS011;53575;51.366;12.350;2022-10-19T10:30:01;6.90;;;2.25;;
66680;SDS011;53575;51.366;12.350;2022-10-19T10:32:30;15.32;;;3.35;;
66680;SDS011;53575;51.366;12.350;2022-10-19T10:35:01;8.07;;;2.97;;
66680;SDS011;53575;51.366;12.350;2022-10-19T10:37:40;6.63;;;3.30;;
66680;SDS011;53575;51.366;12.350;2022-10-19T10:42:52;12.68;;;3.13;;
66680;SDS011;53575;51.366;12.350;2022-10-19T10:45:25;6.65;;;1.80;;
66680;SDS011;53575;51.366;12.350;2022-10-19T10:47:54;5.05;;;1.42;;
66680;SDS011;53575;51.366;12.350;2022-10-19T10:50:22;3.30;;;1.08;;
66680;SDS011;53575;51.366;12.350;2022-10-19T10:55:55;3.67;;;0.93;;
66680;SDS011;53575;51.366;12.350;2022-10-19T11:01:36;5.28;;;1.42;;
66680;SDS011;53575;51.366;12.350;2022-10-19T11:04:23;3.53;;;1.10;;
66680;SDS011;53575;51.366;12.350;2022-10-19T11:06:53;5.57;;;1.00;;
66680;SDS011;53575;51.366;12.350;2022-10-19T11:09:30;4.82;;;1.10;;
66680;SDS011;53575;51.366;12.350;2022-10-19T11:12:01;6.20;;;1.60;;
66680;SDS011;53575;51.366;12.350;2022-10-19T11:14:48;4.72;;;1.10;;
66680;SDS011;53575;51.366;12.350;2022-10-19T11:17:16;2.58;;;1.05;;
66680;SDS011;53575;51.366;12.350;2022-10-19T11:19:46;4.22;;;1.05;;
66680;SDS011;53575;51.366;12.350;2022-10-19T11:27:55;5.90;;;1.33;;
66680;SDS011;53575;51.366;12.350;2022-10-19T11:30:58;11.67;;;7.70;;
66680;SDS011;53575;51.366;12.350;2022-10-19T11:33:33;3.47;;;1.02;;
66680;SDS011;53575;51.366;12.350;2022-10-19T11:42:14;4.47;;;1.08;;
66680;SDS011;53575;51.366;12.350;2022-10-19T11:47:23;1.42;;;0.95;;
66680;SDS011;53575;51.366;12.350;2022-10-19T11:52:31;7.80;;;2.95;;
66680;SDS011;53575;51.366;12.350;2022-10-19T11:57:46;8.30;;;4.38;;
66680;SDS011;53575;51.366;12.350;2022-10-19T12:00:19;7.67;;;2.40;;
66680;SDS011;53575;51.366;12.350;2022-10-19T12:03:05;4.93;;;1.67;;
66680;SDS011;53575;51.366;12.350;2022-10-19T12:05:46;5.00;;;2.03;;
66680;SDS011;53575;51.366;12.350;2022-10-19T12:13:44;4.57;;;1.38;;
66680;SDS011;53575;51.366;12.350;2022-10-19T12:16:13;3.38;;;1.17;;
66680;SDS011;53575;51.366;12.350;2022-10-19T12:18:43;3.38;;;1.30;;
66680;SDS011;53575;51.366;12.350;2022-10-19T12:21:22;6.53;;;1.27;;
66680;SDS011;53575;51.366;12.350;2022-10-19T12:23:54;1.55;;;0.90;;
66680;SDS011;53575;51.366;12.350;2022-10-19T12:26:22;6.75;;;1.58;;
66680;SDS011;53575;51.366;12.350;2022-10-19T12:29:00;3.72;;;1.27;;
66680;SDS011;53575;51.366;12.350;2022-10-19T12:31:30;6.50;;;1.80;;
66680;SDS011;53575;51.366;12.350;2022-10-19T12:34:01;5.25;;;1.80;;
66680;SDS011;53575;51.366;12.350;2022-10-19T12:36:41;8.98;;;2.78;;
66680;SDS011;53575;51.366;12.350;2022-10-19T12:39:30;8.07;;;3.72;;
66680;SDS011;53575;51.366;12.350;2022-10-19T12:42:21;6.55;;;3.90;;
66680;SDS011;53575;51.366;12.350;2022-10-19T12:47:38;7.43;;;4.47;;
66680;SDS011;53575;51.366;12.350;2022-10-19T12:50:04;4.47;;;1.63;;
66680;SDS011;53575;51.366;12.350;2022-10-19T12:52:34;2.85;;;1.05;;
66680;SDS011;53575;51.366;12.350;2022-10-19T12:55:10;2.33;;;0.98;;
66680;SDS011;53575;51.366;12.350;2022-10-19T12:57:47;1.73;;;1.05;;
66680;SDS011;53575;51.366;12.350;2022-10-19T13:00:26;2.38;;;0.98;;
66680;SDS011;53575;51.366;12.350;2022-10-19T13:03:19;7.47;;;1.35;;
66680;SDS011;53575;51.366;12.350;2022-10-19T13:05:54;4.72;;;1.88;;
66680;SDS011;53575;51.366;12.350;2022-10-19T13:08:23;3.55;;;1.33;;
66680;SDS011;53575;51.366;12.350;2022-10-19T13:11:05;3.50;;;1.17;;
66680;SDS011;53575;51.366;12.350;2022-10-19T13:24:28;2.72;;;1.15;;
66680;SDS011;53575;51.366;12.350;2022-10-19T13:40:40;3.22;;;1.05;;
66680;SDS011;53575;51.366;12.350;2022-10-19T13:43:31;5.50;;;1.23;;
66680;SDS011;53575;51.366;12.350;2022-10-19T13:54:31;3.13;;;0.90;;
66680;SDS011;53575;51.366;12.350;2022-10-19T13:57:05;2.45;;;0.82;;
66680;SDS011;53575;51.366;12.350;2022-10-19T13:59:54;2.72;;;1.45;;
66680;SDS011;53575;51.366;12.350;2022-10-19T14:10:58;3.08;;;1.38;;
66680;SDS011;53575;51.366;12.350;2022-10-19T14:13:24;4.90;;;1.60;;
66680;SDS011;53575;51.366;12.350;2022-10-19T14:15:50;5.90;;;1.63;;
66680;SDS011;53575;51.366;12.350;2022-10-19T14:18:21;2.63;;;1.85;;
66680;SDS011;53575;51.366;12.350;2022-10-19T14:21:09;3.78;;;1.60;;
66680;SDS011;53575;51.366;12.350;2022-10-19T14:23:36;1.77;;;0.93;;
66680;SDS011;53575;51.366;12.350;2022-10-19T14:26:14;11.27;;;3.80;;
66680;SDS011;53575;51.366;12.350;2022-10-19T14:28:43;5.88;;;1.70;;
66680;SDS011;53575;51.366;12.350;2022-10-19T14:31:09;4.25;;;1.00;;
66680;SDS011;53575;51.366;12.350;2022-10-19T14:33:48;3.95;;;1.13;;
66680;SDS011;53575;51.366;12.350;2022-10-19T14:36:20;3.15;;;1.77;;
66680;SDS011;53575;51.366;12.350;2022-10-19T14:38:52;4.80;;;2.15;;
66680;SDS011;53575;51.366;12.350;2022-10-19T14:41:20;3.85;;;2.05;;
66680;SDS011;53575;51.366;12.350;2022-10-19T14:43:58;3.65;;;1.58;;
66680;SDS011;53575;51.366;12.350;2022-10-19T14:46:28;4.70;;;1.80;;
66680;SDS011;53575;51.366;12.350;2022-10-19T14:48:59;4.40;;;1.10;;
66680;SDS011;53575;51.366;12.350;2022-10-19T14:54:10;3.72;;;1.30;;
66680;SDS011;53575;51.366;12.350;2022-10-19T14:56:52;3.20;;;1.08;;
66680;SDS011;53575;51.366;12.350;2022-10-19T14:59:28;4.90;;;1.00;;
66680;SDS011;53575;51.366;12.350;2022-10-19T15:01:59;6.53;;;1.98;;
66680;SDS011;53575;51.366;12.350;2022-10-19T15:04:28;7.47;;;3.78;;
66680;SDS011;53575;51.366;12.350;2022-10-19T15:06:55;5.68;;;2.00;;
66680;SDS011;53575;51.366;12.350;2022-10-19T15:11:51;3.35;;;1.60;;
66680;SDS011;53575;51.366;12.350;2022-10-19T15:14:20;5.28;;;1.30;;
66680;SDS011;53575;51.366;12.350;2022-10-19T15:16:51;3.65;;;1.77;;
66680;SDS011;53575;51.366;12.350;2022-10-19T15:24:33;5.68;;;1.90;;
66680;SDS011;53575;51.366;12.350;2022-10-19T15:27:09;5.03;;;1.70;;
66680;SDS011;53575;51.366;12.350;2022-10-19T15:29:52;1.83;;;1.17;;
66680;SDS011;53575;51.366;12.350;2022-10-19T15:32:24;4.28;;;1.80;;
66680;SDS011;53575;51.366;12.350;2022-10-19T15:34:55;3.72;;;1.90;;
66680;SDS011;53575;51.366;12.350;2022-10-19T15:37:22;4.18;;;1.10;;
66680;SDS011;53575;51.366;12.350;2022-10-19T15:39:48;3.88;;;1.95;;
66680;SDS011;53575;51.366;12.350;2022-10-19T15:42:49;6.97;;;1.75;;
66680;SDS011;53575;51.366;12.350;2022-10-19T15:50:49;4.85;;;1.30;;
66680;SDS011;53575;51.366;12.350;2022-10-19T15:53:16;2.67;;;1.08;;
66680;SDS011;53575;51.366;12.350;2022-10-19T15:55:42;2.58;;;0.98;;
66680;SDS011;53575;51.366;12.350;2022-10-19T15:58:08;3.33;;;1.20;;
66680;SDS011;53575;51.366;12.350;2022-10-19T16:00:36;2.83;;;1.27;;
66680;SDS011;53575;51.366;12.350;2022-10-19T16:03:01;1.55;;;0.90;;
66680;SDS011;53575;51.366;12.350;2022-10-19T16:05:28;2.67;;;1.10;;
66680;SDS011;53575;51.366;12.350;2022-10-19T16:07:54;2.60;;;1.00;;
66680;SDS011;53575;51.366;12.350;2022-10-19T16:10:20;1.70;;;0.80;;
66680;SDS011;53575;51.366;12.350;2022-10-19T16:12:48;1.80;;;0.98;;
66680;SDS011;53575;51.366;12.350;2022-10-19T16:15:14;1.52;;;1.00;;
66680;SDS011;53575;51.366;12.350;2022-10-19T16:17:46;2.75;;;1.08;;
66680;SDS011;53575;51.366;12.350;2022-10-19T16:20:13;3.92;;;1.30;;
66680;SDS011;53575;51.366;12.350;2022-10-19T16:22:39;2.63;;;1.42;;
66680;SDS011;53575;51.366;12.350;2022-10-19T16:25:05;1.48;;;1.00;;
66680;SDS011;53575;51.366;12.350;2022-10-19T16:27:30;3.50;;;1.17;;
66680;SDS011;53575;51.366;12.350;2022-10-19T16:29:56;3.05;;;1.75;;
66680;SDS011;53575;51.366;12.350;2022-10-19T16:32:21;5.43;;;2.20;;
66680;SDS011;53575;51.366;12.350;2022-10-19T16:34:47;5.68;;;2.50;;
66680;SDS011;53575;51.366;12.350;2022-10-19T16:37:12;5.20;;;2.42;;
66680;SDS011;53575;51.366;12.350;2022-10-19T16:39:37;4.20;;;1.90;;
66680;SDS011;53575;51.366;12.350;2022-10-19T16:42:02;5.63;;;1.60;;
66680;SDS011;53575;51.366;12.350;2022-10-19T16:44:28;3.75;;;1.50;;
66680;SDS011;53575;51.366;12.350;2022-10-19T16:46:56;2.50;;;1.40;;
66680;SDS011;53575;51.366;12.350;2022-10-19T16:49:22;2.55;;;1.60;;
66680;SDS011;53575;51.366;12.350;2022-10-19T16:51:49;3.58;;;1.88;;
66680;SDS011;53575;51.366;12.350;2022-10-19T16:54:14;3.22;;;1.45;;
66680;SDS011;53575;51.366;12.350;2022-10-19T16:56:44;5.20;;;2.20;;
66680;SDS011;53575;51.366;12.350;2022-10-19T16:59:11;5.05;;;1.85;;
66680;SDS011;53575;51.366;12.350;2022-10-19T17:01:42;3.90;;;2.27;;
66680;SDS011;53575;51.366;12.350;2022-10-19T17:04:10;5.15;;;2.22;;
66680;SDS011;53575;51.366;12.350;2022-10-19T17:06:36;7.28;;;2.55;;
66680;SDS011;53575;51.366;12.350;2022-10-19T17:09:02;8.70;;;2.90;;